Time;durP1;ratioP1;P1;durP2;ratioP2;P2;SDS_P1;SDS_P2;PMS_P1;PMS_P2;Temp;Humidity;BMP_temperature;BMP_pressure;BME280_temperature;BME280_humidity;BME280_pressure;Samples;Min_cycle;Max_cycle;Signal;HPM_P1;HPM_P2
2021/08/19 00:02:08;;;;;;;11.93;4.00;;;;;;;16.80;100.00;101462.25;5225346;28;20404;-79
2021/08/19 00:04:40;;;;;;;7.68;3.67;;;;;;;16.83;100.00;101454.59;5224573;28;20025;-80
2021/08/19 00:07:10;;;;;;;12.63;4.10;;;;;;;16.87;100.00;101444.22;5223834;28;20060;-79
2021/08/19 00:09:41;;;;;;;11.15;4.72;;;;;;;16.79;100.00;101453.28;5221928;28;20045;-79
2021/08/19 00:12:12;;;;;;;9.70;3.90;;;;;;;16.75;100.00;101446.56;5221879;28;20064;-79
2021/08/19 00:14:42;;;;;;;11.35;3.55;;;;;;;16.68;100.00;101450.22;5204015;28;20052;-79
2021/08/19 00:17:13;;;;;;;9.35;3.60;;;;;;;16.70;100.00;101442.72;5205470;28;20036;-80
2021/08/19 00:19:44;;;;;;;9.60;3.47;;;;;;;16.62;100.00;101454.53;5228065;28;20024;-80
2021/08/19 00:22:14;;;;;;;7.93;3.60;;;;;;;16.68;100.00;101450.22;5223845;28;20032;-79
2021/08/19 00:24:45;;;;;;;11.35;3.88;;;;;;;16.65;100.00;101447.88;5217904;28;20028;-80
2021/08/19 00:27:15;;;;;;;11.45;4.72;;;;;;;16.64;100.00;101455.19;5228046;28;20025;-78
2021/08/19 00:29:45;;;;;;;13.38;4.13;;;;;;;16.60;100.00;101450.34;5227877;28;20021;-80
2021/08/19 00:32:16;;;;;;;9.38;3.40;;;;;;;16.67;100.00;101449.38;5227957;28;20413;-78
2021/08/19 00:34:46;;;;;;;12.82;4.00;;;;;;;16.64;100.00;101448.91;5215742;28;20497;-79
2021/08/19 00:37:17;;;;;;;9.10;3.10;;;;;;;16.64;100.00;101449.75;5227440;28;20029;-79
2021/08/19 00:39:48;;;;;;;7.10;3.42;;;;;;;16.61;100.00;101447.41;5225938;28;20020;-80
2021/08/19 00:42:18;;;;;;;9.32;3.50;;;;;;;16.60;100.00;101443.03;5222968;28;20068;-79
2021/08/19 00:44:49;;;;;;;9.93;3.67;;;;;;;16.62;100.00;101449.13;5228324;28;20494;-79
2021/08/19 00:47:19;;;;;;;11.07;3.72;;;;;;;16.60;100.00;101447.63;5227120;28;20025;-80
2021/08/19 00:49:51;;;;;;;10.63;3.90;;;;;;;16.60;100.00;101442.22;5228412;28;20021;-80
2021/08/19 00:52:22;;;;;;;9.38;3.55;;;;;;;16.54;100.00;101435.69;5227904;28;20060;-80
2021/08/19 00:54:53;;;;;;;7.32;3.30;;;;;;;16.50;100.00;101440.63;5228053;28;20025;-80
2021/08/19 00:57:23;;;;;;;7.93;2.78;;;;;;;16.52;100.00;101435.06;5227565;28;20494;-80
2021/08/19 00:59:54;;;;;;;11.15;3.40;;;;;;;16.50;100.00;101437.09;5227504;28;20021;-79
2021/08/19 01:02:24;;;;;;;11.32;3.65;;;;;;;16.42;100.00;101434.53;5214867;28;20077;-80
2021/08/19 01:04:55;;;;;;;7.20;3.08;;;;;;;16.41;100.00;101435.53;5228287;28;20029;-79
2021/08/19 01:07:26;;;;;;;7.20;2.97;;;;;;;16.46;100.00;101427.66;5227672;28;20080;-80
2021/08/19 01:10:04;;;;;;;11.48;3.55;;;;;;;16.48;100.00;101433.75;5227673;28;20155;-80
2021/08/19 01:12:34;;;;;;;14.90;3.53;;;;;;;16.43;100.00;101422.66;5228093;28;20099;-80
2021/08/19 01:15:11;;;;;;;19.33;3.50;;;;;;;16.41;100.00;101427.41;5228433;28;20390;-80
2021/08/19 01:17:53;;;;;;;7.68;3.25;;;;;;;16.46;100.00;101428.50;5227827;28;20130;-79
2021/08/19 01:20:26;;;;;;;7.70;3.00;;;;;;;16.44;100.00;101430.56;5227950;28;20088;-79
2021/08/19 01:22:58;;;;;;;10.70;3.53;;;;;;;16.39;100.00;101432.19;5226961;28;20369;-79
2021/08/19 01:25:29;;;;;;;8.60;3.17;;;;;;;16.36;100.00;101424.41;5213826;28;20029;-79
2021/08/19 01:28:09;;;;;;;12.25;3.42;;;;;;;16.38;100.00;101419.69;5228187;28;20414;-79
2021/08/19 01:30:39;;;;;;;8.70;3.92;;;;;;;16.30;100.00;101421.44;5227466;28;20028;-79
2021/08/19 01:33:10;;;;;;;9.90;3.00;;;;;;;16.28;100.00;101425.38;5227015;28;20029;-80
2021/08/19 01:35:41;;;;;;;7.95;3.67;;;;;;;16.25;100.00;101426.59;5227492;28;20075;-80
2021/08/19 01:38:11;;;;;;;7.22;2.97;;;;;;;16.28;100.00;101422.69;5209709;28;20048;-80
2021/08/19 01:40:42;;;;;;;10.80;3.03;;;;;;;16.27;100.00;101424.56;5220971;28;20048;-79
2021/08/19 01:43:12;;;;;;;8.50;3.25;;;;;;;16.29;100.00;101422.47;5227782;28;20060;-79
2021/08/19 01:45:46;;;;;;;10.38;3.63;;;;;;;16.24;100.00;101422.22;5227279;28;20032;-79
2021/08/19 01:48:17;;;;;;;7.70;3.50;;;;;;;16.23;100.00;101419.69;5227862;28;20088;-79
2021/08/19 01:50:49;;;;;;;16.45;3.75;;;;;;;16.28;100.00;101417.28;5215003;28;20081;-80
2021/08/19 01:53:20;;;;;;;10.45;3.70;;;;;;;16.24;100.00;101416.78;5226118;28;20084;-80
2021/08/19 01:55:52;;;;;;;12.57;3.72;;;;;;;16.23;100.00;101420.53;5227828;28;20039;-79
2021/08/19 01:58:24;;;;;;;9.88;3.22;;;;;;;16.29;100.00;101419.78;5227405;28;20074;-78
2021/08/19 02:00:54;;;;;;;9.23;3.42;;;;;;;16.26;100.00;101419.31;5229218;28;20025;-80
2021/08/19 02:03:25;;;;;;;10.75;3.88;;;;;;;16.25;100.00;101418.47;5219520;28;20025;-80
2021/08/19 02:05:57;;;;;;;12.57;3.63;;;;;;;16.21;100.00;101425.28;5231123;28;20025;-80
2021/08/19 02:08:27;;;;;;;7.82;3.85;;;;;;;16.22;100.00;101432.41;5231575;28;20021;-80
2021/08/19 02:10:58;;;;;;;6.75;3.40;;;;;;;16.28;100.00;101422.69;5230587;28;20109;-79
2021/08/19 02:13:29;;;;;;;13.43;4.05;;;;;;;16.26;100.00;101419.31;5231407;28;20024;-79
2021/08/19 02:16:00;;;;;;;10.27;3.85;;;;;;;16.24;100.00;101422.22;5231337;28;20028;-81
2021/08/19 02:18:31;;;;;;;10.45;4.03;;;;;;;16.22;100.00;101418.03;5218254;28;20071;-78
2021/08/19 02:21:01;;;;;;;9.95;3.97;;;;;;;16.21;100.00;101414.47;5230432;28;20086;-79
2021/08/19 02:23:32;;;;;;;9.77;4.00;;;;;;;16.23;100.00;101419.69;5231183;28;20021;-80
2021/08/19 02:26:03;;;;;;;5.97;3.53;;;;;;;16.19;100.00;101412.97;5231653;28;20024;-80
2021/08/19 02:28:33;;;;;;;10.52;4.70;;;;;;;16.24;100.00;101416.78;5227483;28;20183;-79
2021/08/19 02:31:04;;;;;;;10.30;4.55;;;;;;;16.23;100.00;101420.53;5220943;28;20033;-80
2021/08/19 02:33:34;;;;;;;13.27;4.70;;;;;;;16.24;100.00;101422.22;5230962;28;20116;-80
2021/08/19 02:36:04;;;;;;;11.90;4.95;;;;;;;16.22;100.00;101421.56;5231126;28;20108;-80
2021/08/19 02:38:35;;;;;;;11.55;4.65;;;;;;;16.18;100.00;101412.16;5230941;28;20106;-79
2021/08/19 02:41:05;;;;;;;10.40;4.53;;;;;;;16.13;100.00;101406.47;5231655;28;20025;-79
2021/08/19 02:43:42;;;;;;;9.57;4.55;;;;;;;16.11;100.00;101404.97;5217915;28;20389;-80
2021/08/19 02:46:13;;;;;;;12.50;4.68;;;;;;;16.17;100.00;101404.22;5231241;28;20029;-80
2021/08/19 02:48:43;;;;;;;12.82;5.00;;;;;;;16.12;100.00;101401.25;5231197;28;20141;-80
2021/08/19 02:51:14;;;;;;;10.32;4.40;;;;;;;16.15;100.00;101400.84;5230519;28;20053;-80
2021/08/19 02:53:44;;;;;;;13.15;4.53;;;;;;;16.16;100.00;101397.94;5231666;28;20036;-80
2021/08/19 02:56:15;;;;;;;15.43;4.63;;;;;;;16.18;100.00;101395.06;5230346;28;20021;-80
2021/08/19 02:58:45;;;;;;;12.25;4.78;;;;;;;16.23;100.00;101392.63;5230473;28;20025;-80
2021/08/19 03:01:16;;;;;;;11.25;5.05;;;;;;;16.17;100.00;101396.94;5225160;28;20111;-79
2021/08/19 03:03:46;;;;;;;17.50;6.00;;;;;;;16.16;100.00;101403.34;5218604;28;20057;-79
2021/08/19 03:06:17;;;;;;;13.30;4.97;;;;;;;16.14;100.00;101396.47;5210346;28;20032;-80
2021/08/19 03:08:47;;;;;;;11.85;5.50;;;;;;;16.12;100.00;101396.66;5223881;28;20021;-81
2021/08/19 03:11:18;;;;;;;13.60;5.13;;;;;;;16.04;100.00;101388.66;5220525;28;20129;-80
2021/08/19 03:13:48;;;;;;;14.93;5.43;;;;;;;16.07;100.00;101391.00;5224621;28;20482;-80
2021/08/19 03:16:19;;;;;;;12.15;5.47;;;;;;;16.09;100.00;101390.78;5224171;28;20114;-80
2021/08/19 03:18:50;;;;;;;15.52;5.43;;;;;;;16.05;100.00;101388.44;5223584;28;20020;-81
2021/08/19 03:21:21;;;;;;;13.50;4.97;;;;;;;16.07;100.00;101387.44;5223096;28;20387;-80
2021/08/19 03:23:52;;;;;;;11.93;4.63;;;;;;;16.06;100.00;101392.00;5210226;28;20033;-80
2021/08/19 03:26:22;;;;;;;14.10;5.88;;;;;;;16.05;100.00;101393.03;5223419;28;20021;-81
2021/08/19 03:28:53;;;;;;;15.05;5.82;;;;;;;16.04;100.00;101389.47;5223076;28;20031;-81
2021/08/19 03:31:25;;;;;;;10.55;4.97;;;;;;;16.08;100.00;101392.66;5224372;28;20293;-80
2021/08/19 03:33:55;;;;;;;11.45;5.47;;;;;;;16.07;100.00;101395.56;5224334;28;20370;-80
2021/08/19 03:36:26;;;;;;;15.88;6.03;;;;;;;16.09;100.00;101385.38;5224764;28;20028;-80
2021/08/19 03:38:56;;;;;;;10.82;5.25;;;;;;;16.07;100.00;101387.44;5217622;28;20028;-81
2021/08/19 03:41:27;;;;;;;11.27;5.20;;;;;;;16.06;100.00;101389.28;5212517;28;20512;-81
2021/08/19 03:43:58;;;;;;;14.60;5.22;;;;;;;16.04;100.00;101384.06;5224482;28;20418;-80
2021/08/19 03:46:28;;;;;;;13.65;5.63;;;;;;;16.07;100.00;101387.44;5224303;28;20382;-82
2021/08/19 03:48:59;;;;;;;12.23;5.50;;;;;;;16.04;100.00;101388.66;5213603;28;20037;-80
2021/08/19 03:51:30;;;;;;;16.15;5.25;;;;;;;16.00;100.00;101387.34;5220953;28;20029;-80
2021/08/19 03:54:00;;;;;;;14.48;5.57;;;;;;;16.02;100.00;101391.56;5224613;28;20029;-80
2021/08/19 03:56:32;;;;;;;12.15;5.10;;;;;;;16.03;100.00;101389.69;5224423;28;20049;-80
2021/08/19 03:59:03;;;;;;;12.55;5.97;;;;;;;16.07;100.00;101387.44;5223662;28;20025;-81
2021/08/19 04:01:33;;;;;;;18.45;6.10;;;;;;;16.03;100.00;101389.69;5224194;28;20356;-81
2021/08/19 04:04:04;;;;;;;17.95;6.35;;;;;;;16.02;100.00;101396.97;5223849;28;20078;-80
2021/08/19 04:06:34;;;;;;;15.30;6.05;;;;;;;16.01;100.00;101383.59;5224347;28;20517;-80
2021/08/19 04:09:05;;;;;;;13.15;6.55;;;;;;;16.03;100.00;101395.09;5205579;28;20060;-81
2021/08/19 04:11:35;;;;;;;13.50;5.90;;;;;;;16.04;100.00;101388.66;5223435;28;20029;-81
2021/08/19 04:14:06;;;;;;;17.23;5.80;;;;;;;15.98;100.00;101392.13;5222695;28;20017;-81
2021/08/19 04:16:36;;;;;;;12.15;5.85;;;;;;;15.94;100.00;101386.22;5222776;28;20040;-80
2021/08/19 04:19:07;;;;;;;15.32;5.78;;;;;;;15.94;100.00;101390.81;5204551;28;20124;-81
2021/08/19 04:21:37;;;;;;;11.88;6.13;;;;;;;15.99;100.00;101389.22;5222860;28;20142;-81
2021/08/19 04:24:08;;;;;;;10.85;5.78;;;;;;;15.98;100.00;101387.53;5222509;28;20081;-80
2021/08/19 04:26:38;;;;;;;13.70;6.45;;;;;;;15.93;100.00;101394.53;5222403;28;20378;-80
2021/08/19 04:29:09;;;;;;;19.45;6.15;;;;;;;15.92;100.00;101396.41;5222261;28;20047;-80
2021/08/19 04:31:39;;;;;;;12.77;6.03;;;;;;;15.94;100.00;101391.66;5222472;28;20025;-81
2021/08/19 04:34:10;;;;;;;20.20;5.93;;;;;;;15.88;100.00;101388.84;5222595;28;20482;-80
2021/08/19 04:36:40;;;;;;;26.10;7.15;;;;;;;15.90;100.00;101387.63;5222042;28;20118;-81
2021/08/19 04:39:11;;;;;;;13.73;5.88;;;;;;;15.94;100.00;101391.66;5222339;28;20039;-80
2021/08/19 04:41:42;;;;;;;13.73;5.50;;;;;;;15.95;100.00;101385.19;5222358;28;20100;-81
2021/08/19 04:44:12;;;;;;;12.90;5.65;;;;;;;15.88;100.00;101387.00;5222650;28;20425;-80
2021/08/19 04:46:43;;;;;;;13.02;5.72;;;;;;;15.91;100.00;101397.41;5209527;28;20092;-81
2021/08/19 04:49:13;;;;;;;11.77;6.00;;;;;;;15.88;100.00;101400.50;5221697;28;20057;-81
2021/08/19 04:51:45;;;;;;;12.82;5.95;;;;;;;15.90;100.00;101393.03;5222898;28;20036;-81
2021/08/19 04:54:16;;;;;;;16.20;5.70;;;;;;;15.89;100.00;101395.94;5209771;28;20049;-81
2021/08/19 04:56:46;;;;;;;15.73;5.80;;;;;;;15.89;100.00;101388.66;5222932;28;20552;-81
2021/08/19 04:59:17;;;;;;;14.05;6.10;;;;;;;15.86;100.00;101394.44;5205112;28;20029;-81
2021/08/19 05:01:49;;;;;;;15.02;5.88;;;;;;;15.85;100.00;101394.63;5222528;28;20029;-80
2021/08/19 05:04:19;;;;;;;15.02;6.20;;;;;;;15.86;100.00;101393.59;5220149;28;20037;-80
2021/08/19 05:06:49;;;;;;;14.60;5.93;;;;;;;15.84;100.00;101398.38;5194166;28;20500;-80
2021/08/19 05:09:20;;;;;;;13.05;5.05;;;;;;;15.87;100.00;101398.00;5222160;28;20112;-80
2021/08/19 05:11:50;;;;;;;11.57;5.32;;;;;;;15.91;100.00;101396.59;5221799;28;20096;-80
2021/08/19 05:14:22;;;;;;;11.57;5.20;;;;;;;15.97;100.00;101404.81;5222162;28;20104;-80
2021/08/19 05:16:52;;;;;;;9.25;5.22;;;;;;;15.96;100.00;101402.25;5209942;28;20357;-81
2021/08/19 05:19:23;;;;;;;11.43;5.53;;;;;;;15.98;100.00;101400.22;5220477;28;20318;-80
2021/08/19 05:21:53;;;;;;;14.68;6.60;;;;;;;16.01;100.00;101410.66;5222026;28;20021;-80
2021/08/19 05:24:23;;;;;;;11.98;5.18;;;;;;;16.04;100.00;101413.00;5221539;28;20471;-80
2021/08/19 05:26:54;;;;;;;18.13;6.03;;;;;;;16.09;100.00;101415.16;5222215;28;20546;-79
2021/08/19 05:29:24;;;;;;;15.57;5.80;;;;;;;16.10;100.00;101425.78;5221984;28;20103;-80
2021/08/19 05:31:55;;;;;;;12.10;5.50;;;;;;;16.09;100.00;101423.25;5204186;28;20021;-80
2021/08/19 05:34:25;;;;;;;12.07;5.20;;;;;;;16.13;100.00;101421.88;5222654;28;20108;-80
2021/08/19 05:36:56;;;;;;;17.85;6.50;;;;;;;16.12;100.00;101422.91;5222768;28;20052;-80
2021/08/19 05:39:26;;;;;;;11.27;5.10;;;;;;;16.16;100.00;101419.59;5205651;28;20040;-80
2021/08/19 05:41:57;;;;;;;9.60;5.13;;;;;;;16.20;100.00;101426.31;5217761;28;20057;-80
2021/08/19 05:44:27;;;;;;;13.57;4.95;;;;;;;16.26;100.00;101422.84;5225404;28;20059;-81
2021/08/19 05:46:58;;;;;;;11.82;5.07;;;;;;;16.24;100.00;101422.22;5225419;28;20314;-80
2021/08/19 05:49:28;;;;;;;14.23;5.20;;;;;;;16.26;100.00;101425.56;5211726;28;20025;-80
2021/08/19 05:51:59;;;;;;;11.45;4.80;;;;;;;16.42;100.00;101426.41;5225403;28;20028;-80
2021/08/19 05:54:29;;;;;;;13.20;5.30;;;;;;;16.40;100.00;101421.16;5224970;28;20453;-80
2021/08/19 05:57:02;;;;;;;9.55;4.53;;;;;;;16.45;100.00;101429.53;5225514;28;20545;-80
2021/08/19 05:59:32;;;;;;;14.65;5.22;;;;;;;16.64;100.00;101436.22;5212152;28;20024;-79
2021/08/19 06:02:03;;;;;;;14.98;4.82;;;;;;;16.60;100.00;101437.63;5224727;28;20029;-79
2021/08/19 06:04:34;;;;;;;11.95;4.72;;;;;;;16.56;100.00;101430.91;5224584;28;20540;-80
2021/08/19 06:07:05;;;;;;;9.73;4.35;;;;;;;16.64;100.00;101435.38;5224949;28;20308;-78
2021/08/19 06:09:36;;;;;;;9.95;4.20;;;;;;;16.57;100.00;101441.56;5206669;28;20028;-79
2021/08/19 06:12:07;;;;;;;10.80;5.38;;;;;;;16.71;100.00;101438.97;5224558;28;20020;-81
2021/08/19 06:14:37;;;;;;;13.05;4.82;;;;;;;16.63;100.00;101441.84;5224521;28;20116;-79
2021/08/19 06:17:08;;;;;;;10.98;4.60;;;;;;;16.66;100.00;101439.56;5209587;28;20029;-78
2021/08/19 06:19:39;;;;;;;6.05;4.28;;;;;;;16.67;100.00;101440.44;5213253;28;20104;-79
2021/08/19 06:22:10;;;;;;;11.23;5.32;;;;;;;16.65;100.00;101442.47;5211194;28;20091;-80
2021/08/19 06:24:40;;;;;;;9.75;3.88;;;;;;;16.70;100.00;101449.00;5224853;28;20103;-82
2021/08/19 06:27:10;;;;;;;12.23;4.50;;;;;;;16.60;100.00;101444.91;5224630;28;20025;-80
2021/08/19 06:29:41;;;;;;;11.85;5.43;;;;;;;16.65;100.00;101443.31;5224490;28;20041;-81
2021/08/19 06:32:11;;;;;;;9.95;5.03;;;;;;;16.61;100.00;101449.28;5224710;28;20098;-82
2021/08/19 06:34:42;;;;;;;10.50;4.47;;;;;;;16.72;100.00;101446.97;5224621;28;20032;-81
2021/08/19 06:37:12;;;;;;;12.68;4.88;;;;;;;16.73;100.00;101448.66;5210911;28;20029;-81
2021/08/19 06:39:43;;;;;;;7.43;4.40;;;;;;;16.76;100.00;101445.53;5223456;28;20109;-80
2021/08/19 06:42:13;;;;;;;12.35;4.57;;;;;;;16.83;100.00;101460.00;5218998;28;20179;-80
2021/08/19 06:44:44;;;;;;;8.68;4.28;;;;;;;16.81;100.00;101453.91;5224897;28;20493;-82
2021/08/19 06:47:14;;;;;;;9.02;4.45;;;;;;;16.93;100.00;101458.84;5225132;28;20029;-81
2021/08/19 06:49:46;;;;;;;13.07;4.78;;;;;;;16.94;100.00;101447.81;5211218;28;20057;-80
2021/08/19 06:52:16;;;;;;;7.95;3.90;;;;;;;16.95;100.00;101448.66;5215365;28;20539;-79
2021/08/19 06:54:47;;;;;;;9.57;3.70;;;;;;;17.02;100.00;101453.13;5208110;28;20021;-81
2021/08/19 06:57:17;;;;;;;11.65;4.35;;;;;;;16.87;100.00;101449.63;5225356;28;20104;-80
2021/08/19 06:59:48;;;;;;;11.32;4.22;;;;;;;16.89;100.00;101461.09;5225430;28;20041;-80
2021/08/19 07:02:18;;;;;;;9.52;4.25;;;;;;;16.90;100.00;101448.38;5211460;28;20029;-82
2021/08/19 07:04:49;;;;;;;8.88;4.15;;;;;;;16.89;100.00;101461.09;5223594;28;20363;-80
2021/08/19 07:07:19;;;;;;;12.48;6.60;;;;;;;16.88;100.00;101462.16;5224171;28;20024;-80
2021/08/19 07:09:50;;;;;;;15.57;5.03;;;;;;;16.95;100.00;101454.91;5224042;28;20082;-80
2021/08/19 07:12:21;;;;;;;9.82;4.82;;;;;;;17.08;100.00;101454.22;5210915;28;20498;-82
2021/08/19 07:14:52;;;;;;;14.10;5.03;;;;;;;17.15;100.00;101456.97;5223595;28;20105;-80
2021/08/19 07:17:22;;;;;;;11.52;4.97;;;;;;;17.32;100.00;101453.81;5223991;28;20549;-82
2021/08/19 07:19:53;;;;;;;15.70;4.80;;;;;;;17.25;100.00;101458.31;5223931;28;20385;-81
2021/08/19 07:22:25;;;;;;;9.25;4.30;;;;;;;17.35;100.00;101453.41;5223939;28;20115;-81
2021/08/19 07:24:56;;;;;;;13.63;5.00;;;;;;;17.32;100.00;101458.41;5224180;28;20029;-80
2021/08/19 07:27:26;;;;;;;12.00;5.05;;;;;;;17.37;100.00;101447.78;5210068;28;20512;-79
2021/08/19 07:29:57;;;;;;;12.35;4.80;;;;;;;17.27;100.00;101458.09;5224049;28;20106;-84
2021/08/19 07:32:27;;;;;;;8.57;5.00;;;;;;;17.29;100.00;101459.59;5216739;28;20024;-83
2021/08/19 07:34:57;;;;;;;11.27;4.80;;;;;;;17.32;100.00;101453.81;5217176;28;20152;-82
2021/08/19 07:37:28;;;;;;;7.85;3.28;;;;;;;17.47;100.00;101458.28;5223767;28;20375;-83
2021/08/19 07:39:58;;;;;;;6.72;3.58;;;;;;;17.51;100.00;101454.13;5220463;28;20067;-83
2021/08/19 07:42:29;;;;;;;12.25;3.90;;;;;;;17.60;100.00;101461.94;5192074;28;20025;-83
2021/08/19 07:44:59;;;;;;;12.07;4.40;;;;;;;17.62;100.00;101450.91;5207079;28;20075;-84
2021/08/19 07:47:30;;;;;;;11.32;4.43;;;;;;;17.62;100.00;101464.47;5223503;28;20021;-81
2021/08/19 07:50:01;;;;;;;15.40;4.50;;;;;;;17.48;100.00;101466.25;5223044;28;20105;-82
2021/08/19 07:52:31;;;;;;;5.88;3.47;;;;;;;17.45;100.00;101465.78;5222971;28;20112;-82
2021/08/19 07:55:03;;;;;;;11.32;3.38;;;;;;;17.49;100.00;101461.66;5192417;28;20514;-84
2021/08/19 07:57:43;;;;;;;8.30;3.50;;;;;;;17.63;100.00;101452.56;5222982;28;20120;-83
2021/08/19 08:00:20;;;;;;;9.80;3.50;;;;;;;17.56;100.00;101457.09;5213691;28;20025;-81
2021/08/19 08:02:52;;;;;;;9.70;3.40;;;;;;;17.46;100.00;101460.16;5203105;28;20315;-85
2021/08/19 08:05:24;;;;;;;11.27;3.92;;;;;;;17.50;100.00;101466.03;5223043;28;20104;-84
2021/08/19 08:08:02;;;;;;;11.45;3.55;;;;;;;17.70;100.00;101456.16;5218534;28;20035;-83
2021/08/19 08:10:37;;;;;;;8.80;4.22;;;;;;;17.53;100.00;101462.94;5214129;28;20021;-83
2021/08/19 08:13:09;;;;;;;10.88;3.55;;;;;;;17.54;100.00;101468.16;5224364;28;20074;-81
2021/08/19 08:15:40;;;;;;;5.53;3.20;;;;;;;17.66;100.00;101470.31;5221746;28;20033;-83
2021/08/19 08:18:15;;;;;;;6.70;3.42;;;;;;;17.83;100.00;101463.59;5214531;28;20036;-82
2021/08/19 08:20:46;;;;;;;6.50;2.92;;;;;;;18.00;100.00;101464.09;5224281;28;20112;-82
2021/08/19 08:23:18;;;;;;;9.65;3.38;;;;;;;18.29;100.00;101463.84;5224481;28;20099;-82
2021/08/19 08:25:50;;;;;;;12.23;3.28;;;;;;;18.54;100.00;101469.59;5223490;28;20078;-82
2021/08/19 08:28:26;;;;;;;8.82;3.00;;;;;;;18.68;100.00;101466.91;5206378;28;20386;-83
2021/08/19 08:30:58;;;;;;;8.68;2.90;;;;;;;19.10;100.00;101479.38;5212305;28;20025;-83
2021/08/19 08:33:30;;;;;;;10.85;3.30;;;;;;;19.36;100.00;101470.38;5224551;28;20113;-82
2021/08/19 08:36:01;;;;;;;9.00;3.70;;;;;;;19.16;100.00;101478.53;5225296;28;20486;-82
2021/08/19 08:38:32;;;;;;;8.63;3.05;;;;;;;19.06;100.00;101478.09;5224793;28;20386;-83
2021/08/19 08:41:03;;;;;;;5.57;2.97;;;;;;;19.11;100.00;101475.59;5217464;28;20044;-83
2021/08/19 08:43:36;;;;;;;9.13;3.22;;;;;;;19.11;100.00;101478.31;5223714;28;20024;-83
2021/08/19 08:46:07;;;;;;;14.35;3.53;;;;;;;19.22;100.00;101483.13;5206073;28;20048;-82
2021/08/19 08:48:39;;;;;;;6.53;3.38;;;;;;;19.21;100.00;101486.06;5210975;28;20117;-81
2021/08/19 08:51:10;;;;;;;8.90;3.33;;;;;;;19.18;100.00;101489.19;5223649;28;20060;-83
2021/08/19 08:53:41;;;;;;;10.20;2.65;;;;;;;19.46;100.00;101483.56;5223715;28;20020;-83
2021/08/19 08:56:12;;;;;;;8.80;2.75;;;;;;;19.72;100.00;101480.84;5210648;28;20079;-84
2021/08/19 08:58:43;;;;;;;7.18;2.50;;;;;;;19.74;100.00;101481.50;5224121;28;20030;-82
2021/08/19 09:01:13;;;;;;;9.05;3.25;;;;;;;19.88;100.00;101488.59;5218249;28;20033;-82
2021/08/19 09:03:44;;;;;;;8.60;3.72;;;;;;;19.92;100.00;101484.38;5214732;28;20136;-82
2021/08/19 09:06:34;;;;;;;6.97;3.55;;;;;;;19.87;100.00;101489.63;5218251;28;20180;-83
2021/08/19 09:09:22;;;;;;;8.05;2.75;;;;;;;19.50;100.00;101493.84;5221006;28;20036;-82
2021/08/19 09:11:55;;;;;;;5.68;2.45;;;;;;;19.50;100.00;101490.28;5228300;28;20021;-82
2021/08/19 09:14:28;;;;;;;10.27;3.47;;;;;;;19.44;100.00;101491.13;5227503;28;20512;-82
2021/08/19 09:16:59;;;;;;;9.02;2.78;;;;;;;19.22;100.00;101494.00;5228094;28;20102;-82
2021/08/19 09:19:32;;;;;;;5.78;2.40;;;;;;;18.93;100.00;101500.69;5227849;28;20027;-82
2021/08/19 09:22:06;;;;;;;6.45;3.03;;;;;;;18.85;100.00;101495.41;5227511;28;20032;-83
2021/08/19 09:24:36;;;;;;;9.38;2.83;;;;;;;18.86;100.00;101495.22;5227728;28;20530;-83
2021/08/19 09:27:10;;;;;;;6.20;3.30;;;;;;;18.71;100.00;101490.97;5227606;28;20120;-82
2021/08/19 09:29:42;;;;;;;4.10;2.40;;;;;;;18.63;100.00;101490.09;5227560;28;20052;-83
2021/08/19 09:32:15;;;;;;;6.70;2.72;;;;;;;18.38;100.00;101488.97;5227304;28;20025;-83
2021/08/19 09:34:48;;;;;;;5.97;2.42;;;;;;;18.25;100.00;101491.59;5213909;28;20505;-81
2021/08/19 09:37:20;;;;;;;7.60;2.30;;;;;;;18.25;100.00;101484.28;5219343;28;20021;-83
2021/08/19 09:39:57;;;;;;;6.35;2.40;;;;;;;18.27;100.00;101486.78;5218157;28;20021;-83
2021/08/19 09:42:36;;;;;;;5.43;2.55;;;;;;;18.19;100.00;101485.09;5222018;28;20025;-85
2021/08/19 09:45:24;;;;;;;5.63;2.08;;;;;;;18.36;100.00;101491.84;5225644;28;20395;-81
2021/08/19 09:48:07;;;;;;;6.95;2.50;;;;;;;18.61;100.00;101491.34;5211987;28;20040;-81
2021/08/19 09:50:37;;;;;;;6.53;2.30;;;;;;;18.84;100.00;101481.00;5197439;28;20431;-82
2021/08/19 09:53:22;;;;;;;5.82;2.78;;;;;;;19.21;100.00;101497.78;5222068;28;20330;-81
2021/08/19 09:55:54;;;;;;;4.05;1.88;;;;;;;19.38;100.00;101477.31;5225491;28;20032;-82
2021/08/19 09:58:32;;;;;;;2.92;1.77;;;;;;;19.89;100.00;101471.22;5214099;28;20447;-83
2021/08/19 10:01:03;;;;;;;8.82;1.80;;;;;;;20.04;100.00;101475.59;5226891;28;20020;-80
2021/08/19 10:03:35;;;;;;;4.28;1.95;;;;;;;20.13;100.00;101468.81;5224102;28;20078;-82
2021/08/19 10:06:08;;;;;;;5.10;1.60;;;;;;;20.04;100.00;101464.69;5213179;28;20021;-82
2021/08/19 10:08:38;;;;;;;5.78;1.75;;;;;;;20.34;100.00;101470.47;5227401;28;20025;-83
2021/08/19 10:11:12;;;;;;;4.47;2.03;;;;;;;20.40;100.00;101470.41;5236713;28;20519;-82
2021/08/19 10:13:43;;;;;;;4.78;1.30;;;;;;;20.30;100.00;101471.94;5226769;28;20025;-84
2021/08/19 10:16:16;;;;;;;4.30;1.67;;;;;;;20.53;100.00;101468.72;5226435;28;20040;-81
2021/08/19 10:18:50;;;;;;;4.57;1.35;;;;;;;20.51;100.00;101473.56;5226577;28;20032;-83
2021/08/19 10:21:21;;;;;;;6.40;1.70;;;;;;;20.48;100.00;101476.69;5225761;28;20025;-83
2021/08/19 10:23:53;;;;;;;5.25;2.08;;;;;;;20.41;100.00;101469.38;5226575;28;20186;-83
2021/08/19 10:26:23;;;;;;;3.70;2.00;;;;;;;20.49;100.00;101470.22;5226273;28;20367;-83
2021/08/19 10:28:56;;;;;;;4.63;2.17;;;;;;;20.71;100.00;101477.00;5223121;28;20031;-83
2021/08/19 10:31:36;;;;;;;4.57;1.75;;;;;;;20.39;100.00;101474.19;5200626;28;20032;-83
2021/08/19 10:34:07;;;;;;;4.85;2.28;;;;;;;20.52;100.00;101472.50;5227073;28;20422;-84
2021/08/19 10:36:38;;;;;;;9.60;2.03;;;;;;;20.97;100.00;101472.44;5213817;28;20111;-83
2021/08/19 10:39:18;;;;;;;7.45;2.65;;;;;;;21.19;100.00;101471.06;5218369;28;20499;-82
2021/08/19 10:41:52;;;;;;;4.18;2.25;;;;;;;21.51;100.00;101471.88;5216828;28;20036;-81
2021/08/19 10:44:49;;;;;;;6.57;2.55;;;;;;;21.85;100.00;101472.38;5197091;28;20029;-83
2021/08/19 10:47:39;;;;;;;7.50;2.53;;;;;;;21.69;100.00;101473.81;5214758;28;20060;-84
2021/08/19 10:50:31;;;;;;;6.28;2.25;;;;;;;21.55;100.00;101475.81;5226685;28;20021;-84
2021/08/19 10:53:14;;;;;;;10.65;2.55;;;;;;;21.72;100.00;101484.25;5227685;28;20052;-83
2021/08/19 10:55:46;;;;;;;6.47;2.17;;;;;;;21.43;100.00;101469.41;5214164;28;20574;-84
2021/08/19 10:58:22;;;;;;;6.45;2.00;;;;;;;21.17;100.00;101473.97;5224157;28;20025;-82
2021/08/19 11:00:55;;;;;;;6.50;2.08;;;;;;;21.09;100.00;101474.28;5224460;28;20470;-83
2021/08/19 11:03:36;;;;;;;6.00;2.38;;;;;;;20.87;100.00;101472.94;5224165;28;20390;-83
2021/08/19 11:06:09;;;;;;;6.07;2.42;;;;;;;20.76;100.00;101471.75;5223467;28;20037;-83
2021/08/19 11:08:44;;;;;;;8.90;2.10;;;;;;;21.04;100.00;101470.53;5211907;28;20029;-85
2021/08/19 11:11:27;;;;;;;6.00;2.15;;;;;;;20.50;100.00;101474.63;5222867;28;20032;-83
2021/08/19 11:13:59;;;;;;;5.47;1.95;;;;;;;20.31;100.00;101463.53;5223494;28;20096;-84
2021/08/19 11:16:31;;;;;;;8.38;2.30;;;;;;;20.31;100.00;101476.31;5223844;28;20098;-84
2021/08/19 11:19:12;;;;;;;3.63;1.83;;;;;;;20.09;100.00;101473.88;5205666;28;20021;-82
2021/08/19 11:21:48;;;;;;;5.07;2.20;;;;;;;20.26;100.00;101473.41;5224350;28;20033;-82
2021/08/19 11:24:19;;;;;;;4.53;1.95;;;;;;;20.23;100.00;101477.41;5226527;28;20047;-81
2021/08/19 11:27:03;;;;;;;5.03;2.25;;;;;;;20.52;100.00;101477.94;5206648;28;20033;-81
2021/08/19 11:29:37;;;;;;;3.75;2.10;;;;;;;20.52;100.00;101475.22;5226321;28;20024;-81
2021/08/19 11:32:11;;;;;;;7.65;1.95;;;;;;;20.64;100.00;101477.06;5193054;28;20398;-83
2021/08/19 11:34:48;;;;;;;4.68;1.67;;;;;;;20.60;100.00;101475.81;5208155;28;20390;-84